Time;durP1;ratioP1;P1;durP2;ratioP2;P2;SDS_P1;SDS_P2;PMS_P1;PMS_P2;Temp;Humidity;BMP_temperature;BMP_pressure;BME280_temperature;BME280_humidity;BME280_pressure;Samples;Min_cycle;Max_cycle;Signal;HPM_P1;HPM_P2
2023/03/16 00:01:05;;;;;;;8.27;3.72;;;6.00;99.90;;;;;;4195417;28;20025;-68
2023/03/16 00:03:06;;;;;;;11.25;3.70;;;6.00;99.90;;;;;;4195892;28;20033;-67
2023/03/16 00:05:08;;;;;;;8.57;3.30;;;5.90;99.90;;;;;;4195189;28;20052;-68
2023/03/16 00:07:10;;;;;;;9.80;4.03;;;5.80;99.90;;;;;;4193361;28;20025;-68
2023/03/16 00:09:10;;;;;;;11.73;4.03;;;5.80;99.90;;;;;;4195726;28;20027;-67
2023/03/16 00:11:11;;;;;;;8.75;3.53;;;5.80;99.90;;;;;;4194499;28;20052;-68
2023/03/16 00:13:23;;;;;;;9.35;4.20;;;5.70;99.90;;;;;;4195582;28;20369;-68
2023/03/16 00:15:23;;;;;;;8.32;3.75;;;5.70;99.90;;;;;;4192787;28;20036;-68
2023/03/16 00:17:25;;;;;;;11.02;3.75;;;5.70;99.90;;;;;;4186060;28;20400;-68
2023/03/16 00:19:25;;;;;;;8.75;3.97;;;5.60;99.90;;;;;;4193052;28;20029;-68
2023/03/16 00:21:26;;;;;;;6.63;3.47;;;5.60;99.90;;;;;;4194742;28;20102;-69
2023/03/16 00:23:27;;;;;;;7.25;3.63;;;5.60;99.90;;;;;;4195371;28;20032;-68
2023/03/16 00:25:28;;;;;;;7.07;3.75;;;5.60;99.90;;;;;;4194652;28;20475;-69
2023/03/16 00:27:29;;;;;;;6.65;3.78;;;5.50;99.90;;;;;;4183256;28;20052;-69
2023/03/16 00:29:33;;;;;;;6.68;3.90;;;5.50;99.90;;;;;;4188163;28;20033;-69
2023/03/16 00:31:34;;;;;;;7.47;3.90;;;5.50;99.90;;;;;;4195066;28;20100;-70
2023/03/16 00:33:35;;;;;;;9.95;3.58;;;5.50;99.90;;;;;;4195578;28;20039;-69
2023/03/16 00:35:35;;;;;;;9.15;3.72;;;5.40;99.90;;;;;;4194122;28;20037;-68
2023/03/16 00:37:38;;;;;;;11.35;3.97;;;5.40;99.90;;;;;;4189720;28;20036;-69
2023/03/16 00:39:39;;;;;;;9.07;3.67;;;5.40;99.90;;;;;;4195456;28;20121;-68
2023/03/16 00:41:40;;;;;;;5.63;3.60;;;5.30;99.90;;;;;;4189980;28;20037;-69
2023/03/16 00:43:42;;;;;;;10.18;3.65;;;5.40;99.90;;;;;;4193745;28;20500;-68
2023/03/16 00:45:43;;;;;;;7.13;3.55;;;5.40;99.90;;;;;;4193540;28;20153;-68
2023/03/16 00:47:44;;;;;;;9.65;3.85;;;5.40;99.90;;;;;;4188431;28;20483;-68
2023/03/16 00:49:44;;;;;;;9.38;4.10;;;5.40;99.90;;;;;;4194354;28;20032;-69
2023/03/16 00:51:45;;;;;;;7.35;3.75;;;5.40;99.90;;;;;;4192857;28;20039;-68
2023/03/16 00:53:46;;;;;;;8.90;3.90;;;5.40;99.90;;;;;;4193278;28;20029;-68
2023/03/16 00:55:46;;;;;;;8.77;3.72;;;5.40;99.90;;;;;;4193420;28;20115;-68
2023/03/16 00:57:47;;;;;;;8.55;3.72;;;5.40;99.90;;;;;;4188640;28;20124;-68
2023/03/16 00:59:48;;;;;;;9.48;3.85;;;5.30;99.90;;;;;;4192896;28;20043;-69
2023/03/16 01:01:48;;;;;;;8.40;3.65;;;5.30;99.90;;;;;;4194645;28;20037;-68
2023/03/16 01:03:49;;;;;;;7.28;3.30;;;5.40;99.90;;;;;;4195202;28;20036;-68
2023/03/16 01:05:50;;;;;;;6.53;3.58;;;5.40;99.90;;;;;;4188658;28;20045;-69
2023/03/16 01:07:51;;;;;;;7.72;3.35;;;5.40;99.90;;;;;;4192440;28;20029;-69
2023/03/16 01:09:51;;;;;;;7.45;3.65;;;5.50;99.90;;;;;;4186440;28;20491;-69
2023/03/16 01:11:53;;;;;;;8.10;3.00;;;5.40;99.90;;;;;;4191957;28;20033;-68
2023/03/16 01:13:54;;;;;;;9.70;3.60;;;5.40;99.90;;;;;;4195050;28;20537;-69
2023/03/16 01:15:54;;;;;;;8.65;3.20;;;5.40;99.90;;;;;;4193381;28;20036;-68
2023/03/16 01:17:55;;;;;;;10.45;3.38;;;5.40;99.90;;;;;;4193396;28;20047;-69
2023/03/16 01:19:56;;;;;;;6.82;3.10;;;5.40;99.90;;;;;;4194835;28;20529;-68
2023/03/16 01:21:57;;;;;;;5.65;3.15;;;5.40;99.90;;;;;;4193177;28;20032;-68
2023/03/16 01:23:57;;;;;;;8.65;3.35;;;5.30;99.90;;;;;;4194698;28;20130;-68
2023/03/16 01:25:59;;;;;;;6.68;3.40;;;5.30;99.90;;;;;;4191425;28;20479;-69
2023/03/16 01:28:00;;;;;;;5.90;3.05;;;5.30;99.90;;;;;;4209952;28;20032;-68
2023/03/16 01:30:01;;;;;;;7.65;3.10;;;5.30;99.90;;;;;;4194881;28;20032;-69
2023/03/16 01:32:03;;;;;;;10.48;3.85;;;5.40;99.90;;;;;;4193798;28;20041;-68
2023/03/16 01:34:03;;;;;;;8.63;3.33;;;5.30;99.90;;;;;;4194705;28;20036;-69
2023/03/16 01:36:07;;;;;;;9.77;3.75;;;5.30;99.90;;;;;;4191350;28;20519;-68
2023/03/16 01:38:08;;;;;;;5.50;3.00;;;5.30;99.90;;;;;;4186799;28;20036;-68
2023/03/16 01:40:11;;;;;;;7.25;3.42;;;5.30;99.90;;;;;;4192450;28;20028;-69
2023/03/16 01:42:12;;;;;;;5.97;3.25;;;5.30;99.90;;;;;;4191605;28;20028;-67
2023/03/16 01:44:16;;;;;;;8.00;2.85;;;5.30;99.90;;;;;;4194609;28;20036;-68
2023/03/16 01:46:23;;;;;;;7.40;3.15;;;5.30;99.90;;;;;;4191634;28;20040;-68
2023/03/16 01:48:26;;;;;;;8.57;3.25;;;5.30;99.90;;;;;;4191307;28;20028;-69
2023/03/16 01:50:26;;;;;;;5.60;2.85;;;5.20;99.90;;;;;;4193470;28;20045;-69
2023/03/16 01:52:34;;;;;;;8.52;3.17;;;5.20;99.90;;;;;;4194559;28;20028;-69
2023/03/16 01:54:42;;;;;;;4.88;2.88;;;5.30;99.90;;;;;;4209652;28;20035;-68
2023/03/16 01:56:50;;;;;;;8.10;3.13;;;5.20;99.90;;;;;;4193565;28;20040;-68
2023/03/16 01:58:57;;;;;;;5.95;3.30;;;5.20;99.90;;;;;;4189026;28;20545;-68
2023/03/16 02:00:58;;;;;;;5.82;2.70;;;5.20;99.90;;;;;;4193597;28;20024;-69
2023/03/16 02:03:18;;;;;;;7.05;3.47;;;5.30;99.90;;;;;;4193509;28;20082;-68
2023/03/16 02:05:27;;;;;;;6.75;2.92;;;5.30;99.90;;;;;;4189798;28;20438;-68
2023/03/16 02:07:33;;;;;;;6.85;2.97;;;5.30;99.90;;;;;;4189600;28;20052;-69
2023/03/16 02:09:38;;;;;;;8.50;3.22;;;5.30;99.90;;;;;;4188864;28;20476;-68
2023/03/16 02:11:39;;;;;;;4.70;2.75;;;5.30;99.90;;;;;;4192826;28;20442;-68
2023/03/16 02:13:39;;;;;;;7.28;3.10;;;5.30;99.90;;;;;;4194099;28;20025;-69
2023/03/16 02:15:40;;;;;;;6.28;3.45;;;5.40;99.90;;;;;;4185820;28;20712;-69
2023/03/16 02:17:42;;;;;;;8.15;3.25;;;5.30;99.90;;;;;;4188519;28;20378;-69
2023/03/16 02:20:10;;;;;;;7.63;3.55;;;5.30;99.90;;;;;;4193876;28;20024;-69
2023/03/16 02:22:12;;;;;;;7.50;3.00;;;5.30;99.90;;;;;;4191419;28;20111;-68
2023/03/16 02:24:13;;;;;;;6.47;2.70;;;5.30;99.90;;;;;;4193681;28;20517;-70
2023/03/16 02:26:43;;;;;;;4.93;2.97;;;5.30;99.90;;;;;;4191965;28;20028;-68
2023/03/16 02:28:58;;;;;;;6.20;3.42;;;5.30;99.90;;;;;;4192242;28;20044;-68
2023/03/16 02:30:59;;;;;;;5.00;2.97;;;5.30;99.90;;;;;;4193744;28;20055;-68
2023/03/16 02:33:00;;;;;;;11.15;3.30;;;5.30;99.90;;;;;;4194241;28;20462;-68
2023/03/16 02:35:02;;;;;;;8.73;3.40;;;5.20;99.90;;;;;;4193537;28;20139;-68
2023/03/16 02:37:03;;;;;;;5.32;2.78;;;5.20;99.90;;;;;;4192140;28;20117;-68
2023/03/16 02:39:04;;;;;;;8.05;2.92;;;5.20;99.90;;;;;;4182061;28;20033;-68
2023/03/16 02:41:14;;;;;;;6.68;2.90;;;5.20;99.90;;;;;;4192991;28;20029;-69
2023/03/16 02:43:23;;;;;;;6.55;3.03;;;5.20;99.90;;;;;;4189758;28;20055;-68
2023/03/16 02:45:32;;;;;;;5.18;2.95;;;5.20;99.90;;;;;;4187895;28;20145;-69
2023/03/16 02:47:35;;;;;;;7.10;2.85;;;5.20;99.90;;;;;;4193658;28;20039;-68
2023/03/16 02:49:37;;;;;;;;;;;5.20;99.90;;;;;;4209383;28;20029;-68
2023/03/16 02:51:37;;;;;;;8.25;3.50;;;5.20;99.90;;;;;;4192927;28;20485;-68
2023/03/16 02:53:38;;;;;;;6.90;3.25;;;5.20;99.90;;;;;;4193960;28;20025;-69
2023/03/16 02:55:39;;;;;;;8.23;3.20;;;5.20;99.90;;;;;;4193036;28;20037;-68
2023/03/16 02:57:39;;;;;;;5.07;3.00;;;5.20;99.90;;;;;;4189652;28;20033;-68
2023/03/16 02:59:40;;;;;;;6.60;3.33;;;5.30;99.90;;;;;;4194720;28;20487;-68
2023/03/16 03:01:41;;;;;;;5.93;3.17;;;5.30;99.90;;;;;;4181704;28;20040;-68
2023/03/16 03:03:42;;;;;;;7.22;2.88;;;5.20;99.90;;;;;;4183973;28;20121;-68
2023/03/16 03:05:43;;;;;;;5.88;3.00;;;5.20;99.90;;;;;;4188624;28;20132;-68
2023/03/16 03:07:43;;;;;;;5.05;2.95;;;5.20;99.90;;;;;;4192171;28;20040;-68
2023/03/16 03:09:44;;;;;;;7.70;2.90;;;5.20;99.90;;;;;;4193866;28;20504;-68
2023/03/16 03:11:49;;;;;;;6.78;3.22;;;5.20;99.90;;;;;;4191182;28;20048;-68
2023/03/16 03:13:50;;;;;;;6.20;3.08;;;5.20;99.90;;;;;;4190888;28;20032;-68
2023/03/16 03:15:51;;;;;;;4.00;2.78;;;5.20;99.90;;;;;;4192443;28;20121;-68
2023/03/16 03:17:52;;;;;;;11.57;3.25;;;5.20;99.90;;;;;;4190244;28;20064;-68
2023/03/16 03:19:53;;;;;;;6.82;3.00;;;5.20;99.90;;;;;;4193656;28;20418;-68
2023/03/16 03:21:55;;;;;;;4.65;2.75;;;5.10;99.90;;;;;;4193496;28;20090;-69
2023/03/16 03:23:56;;;;;;;5.65;3.20;;;5.20;99.90;;;;;;4194142;28;20032;-69
2023/03/16 03:25:58;;;;;;;5.35;2.90;;;5.20;99.90;;;;;;4192292;28;20044;-68
2023/03/16 03:27:59;;;;;;;6.53;2.95;;;5.20;99.90;;;;;;4192203;28;20032;-69
2023/03/16 03:30:00;;;;;;;5.53;3.03;;;5.20;99.90;;;;;;4184700;28;20029;-68
2023/03/16 03:32:05;;;;;;;6.22;2.78;;;5.20;99.90;;;;;;4191895;28;20479;-69
2023/03/16 03:34:05;;;;;;;7.18;2.58;;;5.20;99.90;;;;;;4209297;28;20025;-69
2023/03/16 03:36:06;;;;;;;6.45;2.63;;;5.20;99.90;;;;;;4189032;28;20033;-68
2023/03/16 03:38:07;;;;;;;6.10;3.10;;;5.20;99.90;;;;;;4191168;28;20029;-69
2023/03/16 03:40:11;;;;;;;9.13;3.47;;;5.10;99.90;;;;;;4184822;28;20110;-68
2023/03/16 03:42:12;;;;;;;6.07;2.72;;;5.10;99.90;;;;;;4191432;28;20028;-68
2023/03/16 03:44:13;;;;;;;7.55;3.10;;;5.10;99.90;;;;;;4192802;28;20071;-67
2023/03/16 03:46:13;;;;;;;5.78;3.05;;;5.20;99.90;;;;;;4192710;28;20039;-70
2023/03/16 03:48:14;;;;;;;8.45;2.80;;;5.20;99.90;;;;;;4193583;28;20056;-69
2023/03/16 03:50:15;;;;;;;5.55;2.85;;;5.10;99.90;;;;;;4191986;28;20047;-69
2023/03/16 03:52:15;;;;;;;2.90;2.13;;;5.20;99.90;;;;;;4186207;28;20546;-69
2023/03/16 03:54:16;;;;;;;5.88;2.95;;;5.20;99.90;;;;;;4193050;28;20035;-69
2023/03/16 03:56:17;;;;;;;5.53;2.67;;;5.20;99.90;;;;;;4189879;28;20036;-68
2023/03/16 03:58:17;;;;;;;5.50;2.53;;;5.20;99.90;;;;;;4194793;28;20487;-69
2023/03/16 04:00:20;;;;;;;6.13;2.92;;;5.20;99.90;;;;;;4195109;28;20483;-69
2023/03/16 04:02:21;;;;;;;6.85;3.35;;;5.20;99.90;;;;;;4195007;28;20131;-69
2023/03/16 04:04:22;;;;;;;6.63;2.88;;;5.20;99.90;;;;;;4185543;28;20399;-69
2023/03/16 04:06:23;;;;;;;8.77;3.13;;;5.20;99.90;;;;;;4188600;28;20073;-68
2023/03/16 04:08:23;;;;;;;4.78;2.42;;;5.20;99.90;;;;;;4190630;28;20028;-68
2023/03/16 04:10:28;;;;;;;7.95;2.92;;;5.20;99.90;;;;;;4193698;28;20158;-68
2023/03/16 04:12:29;;;;;;;5.38;2.83;;;5.30;99.90;;;;;;4194591;28;20158;-69
2023/03/16 04:14:30;;;;;;;6.03;2.65;;;5.20;99.90;;;;;;4196021;28;20434;-68
2023/03/16 04:16:31;;;;;;;4.10;2.38;;;5.30;99.90;;;;;;4191312;28;20507;-69
2023/03/16 04:18:37;;;;;;;7.72;3.00;;;5.30;99.90;;;;;;4193927;28;20039;-69
2023/03/16 04:20:37;;;;;;;7.25;2.85;;;5.30;99.90;;;;;;4190350;28;20418;-67
2023/03/16 04:22:38;;;;;;;5.85;2.80;;;5.30;99.90;;;;;;4195201;28;20029;-69
2023/03/16 04:24:39;;;;;;;4.55;2.70;;;5.20;99.90;;;;;;4184918;28;20033;-68
2023/03/16 04:26:43;;;;;;;4.10;2.40;;;5.30;99.90;;;;;;4192727;28;20033;-67
2023/03/16 04:28:44;;;;;;;3.90;2.30;;;5.30;99.90;;;;;;4191173;28;20090;-68
2023/03/16 04:30:45;;;;;;;5.53;2.70;;;5.30;99.90;;;;;;4194108;28;20040;-67
2023/03/16 04:32:45;;;;;;;5.75;2.72;;;5.30;99.90;;;;;;4194914;28;20036;-68
2023/03/16 04:34:47;;;;;;;7.25;3.00;;;5.30;99.90;;;;;;4195022;28;20035;-68
2023/03/16 04:36:47;;;;;;;5.85;2.50;;;5.30;99.90;;;;;;4192618;28;20083;-69
2023/03/16 04:38:48;;;;;;;4.05;2.15;;;5.30;99.90;;;;;;4193777;28;20479;-68
2023/03/16 04:40:48;;;;;;;3.65;2.40;;;5.30;99.90;;;;;;4194658;28;20043;-68
2023/03/16 04:42:49;;;;;;;6.35;2.92;;;5.30;99.90;;;;;;4194637;28;20524;-68
2023/03/16 04:44:50;;;;;;;4.38;2.90;;;5.30;99.90;;;;;;4192969;28;20036;-68
2023/03/16 04:46:50;;;;;;;3.40;2.38;;;5.30;99.90;;;;;;4193443;28;20052;-68
2023/03/16 04:48:52;;;;;;;8.30;2.85;;;5.20;99.90;;;;;;4194658;28;20417;-69
2023/03/16 04:50:52;;;;;;;7.15;2.58;;;5.20;99.90;;;;;;4191796;28;20499;-68
2023/03/16 04:52:53;;;;;;;4.78;2.70;;;5.20;99.90;;;;;;4194406;28;20032;-68
2023/03/16 04:54:53;;;;;;;5.10;2.72;;;5.20;99.90;;;;;;4185813;28;20048;-68
2023/03/16 04:56:54;;;;;;;4.75;2.30;;;5.30;99.90;;;;;;4182417;28;20508;-68
2023/03/16 04:58:56;;;;;;;3.95;2.50;;;5.30;99.90;;;;;;4193309;28;20036;-68
2023/03/16 05:00:56;;;;;;;10.02;3.08;;;5.20;99.90;;;;;;4192603;28;20071;-68
2023/03/16 05:02:57;;;;;;;6.35;2.70;;;5.20;99.90;;;;;;4193031;28;20033;-68
2023/03/16 05:04:57;;;;;;;6.00;2.75;;;5.20;99.90;;;;;;4193903;28;20403;-68
2023/03/16 05:06:58;;;;;;;5.93;2.47;;;5.20;99.90;;;;;;4186069;28;20037;-69
2023/03/16 05:08:59;;;;;;;5.65;2.63;;;5.20;99.90;;;;;;4193701;28;20041;-69
2023/03/16 05:11:00;;;;;;;5.07;2.58;;;5.20;99.90;;;;;;4193850;28;20082;-68
2023/03/16 05:13:01;;;;;;;6.43;2.70;;;5.20;99.90;;;;;;4187444;28;20459;-68
2023/03/16 05:15:01;;;;;;;4.00;2.60;;;5.30;99.90;;;;;;4190810;28;20115;-69
2023/03/16 05:17:03;;;;;;;6.93;2.60;;;5.30;99.90;;;;;;4191455;28;20079;-68
2023/03/16 05:19:04;;;;;;;6.03;2.67;;;5.30;99.90;;;;;;4183565;28;20114;-69
2023/03/16 05:21:05;;;;;;;6.32;2.63;;;5.30;99.90;;;;;;4184580;28;20055;-69
2023/03/16 05:23:07;;;;;;;6.03;2.92;;;5.30;99.90;;;;;;4193654;28;20082;-69
2023/03/16 05:25:08;;;;;;;9.20;3.20;;;5.30;99.90;;;;;;4185790;28;20036;-70
2023/03/16 05:27:09;;;;;;;4.72;2.78;;;5.40;99.90;;;;;;4190081;28;20032;-68
2023/03/16 05:29:09;;;;;;;7.15;2.95;;;5.30;99.90;;;;;;4190744;28;20170;-68
2023/03/16 05:31:10;;;;;;;8.48;2.97;;;5.30;99.90;;;;;;4191480;28;20047;-68
2023/03/16 05:33:11;;;;;;;6.85;2.75;;;5.30;99.90;;;;;;4193221;28;20031;-68
2023/03/16 05:35:12;;;;;;;4.00;2.88;;;5.30;99.90;;;;;;4190924;28;20041;-69
2023/03/16 05:37:13;;;;;;;4.07;2.50;;;5.30;99.90;;;;;;4189067;28;20360;-68
2023/03/16 05:39:13;;;;;;;5.53;2.97;;;5.30;99.90;;;;;;4192952;28;20043;-68
2023/03/16 05:41:14;;;;;;;5.68;3.08;;;5.20;99.90;;;;;;4184966;28;20044;-67
2023/03/16 05:43:14;;;;;;;5.28;3.05;;;5.20;99.90;;;;;;4191549;28;20036;-68
2023/03/16 05:45:16;;;;;;;6.40;2.67;;;5.20;99.90;;;;;;4192510;28;20403;-68
2023/03/16 05:47:17;;;;;;;5.88;2.85;;;5.20;99.90;;;;;;4191730;28;20032;-68
2023/03/16 05:49:17;;;;;;;6.22;3.30;;;5.20;99.90;;;;;;4183701;28;20083;-68
2023/03/16 05:51:18;;;;;;;5.50;2.78;;;5.20;99.90;;;;;;4190994;28;20157;-69
2023/03/16 05:53:19;;;;;;;3.65;2.63;;;5.20;99.90;;;;;;4193308;28;20483;-69
2023/03/16 05:55:19;;;;;;;6.65;3.15;;;5.30;99.90;;;;;;4191045;28;20032;-69
2023/03/16 05:57:20;;;;;;;8.73;2.85;;;5.30;99.90;;;;;;4192175;28;20029;-69
2023/03/16 05:59:20;;;;;;;5.45;3.40;;;5.30;99.90;;;;;;4193042;28;20032;-69
2023/03/16 06:01:22;;;;;;;5.70;3.47;;;5.30;99.90;;;;;;4191763;28;20028;-69
2023/03/16 06:03:23;;;;;;;6.87;3.17;;;5.20;99.90;;;;;;4186909;28;20496;-69
2023/03/16 06:05:24;;;;;;;6.97;3.13;;;5.20;99.90;;;;;;4190093;28;20051;-69
2023/03/16 06:07:24;;;;;;;6.07;3.03;;;5.30;99.90;;;;;;4192544;28;20434;-69
2023/03/16 06:09:25;;;;;;;5.85;2.97;;;5.30;99.90;;;;;;4192926;28;20032;-69
2023/03/16 06:11:25;;;;;;;7.18;2.90;;;5.30;99.90;;;;;;4192244;28;20050;-69
2023/03/16 06:13:26;;;;;;;9.82;3.50;;;5.40;99.90;;;;;;4186679;28;20546;-69
2023/03/16 06:15:29;;;;;;;6.03;2.95;;;5.40;99.90;;;;;;4191736;28;20428;-69
2023/03/16 06:17:29;;;;;;;4.47;2.97;;;5.40;99.90;;;;;;4191145;28;20040;-69
2023/03/16 06:19:30;;;;;;;7.05;3.65;;;5.40;99.90;;;;;;4181193;28;20461;-69
2023/03/16 06:21:31;;;;;;;6.18;3.28;;;5.40;99.90;;;;;;4190817;28;20035;-69
2023/03/16 06:23:32;;;;;;;7.60;3.60;;;5.40;99.90;;;;;;4189328;28;20387;-68
2023/03/16 06:25:33;;;;;;;4.93;2.97;;;5.30;99.90;;;;;;4192299;28;20043;-68
2023/03/16 06:27:34;;;;;;;6.18;3.30;;;5.40;99.90;;;;;;4187548;28;20073;-69
2023/03/16 06:29:35;;;;;;;5.25;3.17;;;5.40;99.90;;;;;;4193455;28;20043;-69
2023/03/16 06:31:35;;;;;;;9.80;3.85;;;5.40;99.90;;;;;;4193320;28;20036;-68
2023/03/16 06:33:36;;;;;;;6.88;3.53;;;5.40;99.90;;;;;;4193866;28;20044;-71
2023/03/16 06:35:37;;;;;;;10.25;3.40;;;5.40;99.90;;;;;;4194083;28;20470;-70
2023/03/16 06:37:37;;;;;;;10.35;3.80;;;5.40;99.90;;;;;;4184869;28;20075;-70
2023/03/16 06:39:38;;;;;;;7.10;3.55;;;5.50;99.90;;;;;;4191184;28;20486;-69
2023/03/16 06:41:41;;;;;;;8.63;4.05;;;5.50;99.90;;;;;;4193712;28;20518;-69
2023/03/16 06:43:42;;;;;;;;;;;5.50;99.90;;;;;;4193772;28;20029;-70
2023/03/16 06:45:42;;;;;;;11.27;4.25;;;5.50;99.90;;;;;;4188302;28;19975;-69
2023/03/16 06:47:43;;;;;;;11.80;5.32;;;5.50;99.90;;;;;;4191243;28;20047;-69
2023/03/16 06:49:45;;;;;;;9.40;5.05;;;5.60;99.90;;;;;;4193547;28;20124;-68
2023/03/16 06:51:46;;;;;;;12.50;5.07;;;5.60;99.90;;;;;;4189681;28;20044;-69
2023/03/16 06:53:46;;;;;;;7.03;3.80;;;5.60;99.90;;;;;;4193172;28;20063;-70
2023/03/16 06:55:47;;;;;;;10.27;4.28;;;5.60;99.90;;;;;;4190616;28;20395;-69
2023/03/16 06:57:48;;;;;;;8.18;4.13;;;5.60;99.90;;;;;;4194111;28;20105;-68
2023/03/16 06:59:48;;;;;;;8.75;4.10;;;5.60;99.90;;;;;;4194993;28;20029;-69
2023/03/16 07:01:49;;;;;;;8.18;4.03;;;5.60;99.90;;;;;;4194422;28;20090;-69
2023/03/16 07:03:50;;;;;;;6.10;3.60;;;5.70;99.90;;;;;;4194731;28;20039;-68
2023/03/16 07:05:50;;;;;;;7.15;4.00;;;5.70;99.90;;;;;;4192544;28;20120;-68
2023/03/16 07:07:51;;;;;;;8.48;4.70;;;5.70;99.90;;;;;;4176773;28;20044;-69
2023/03/16 07:09:53;;;;;;;7.28;3.95;;;5.70;99.90;;;;;;4194825;28;20049;-68
2023/03/16 07:11:53;;;;;;;12.18;4.60;;;5.70;99.90;;;;;;4194201;28;20059;-69
2023/03/16 07:13:54;;;;;;;9.75;4.28;;;5.70;99.90;;;;;;4193338;28;20493;-69
2023/03/16 07:15:54;;;;;;;7.35;4.05;;;5.70;99.90;;;;;;4194294;28;20039;-69
2023/03/16 07:17:55;;;;;;;15.05;4.60;;;5.70;99.90;;;;;;4194855;28;20499;-69
2023/03/16 07:19:56;;;;;;;6.75;4.28;;;5.80;99.90;;;;;;4194931;28;20123;-69
2023/03/16 07:21:56;;;;;;;7.30;4.30;;;5.80;99.90;;;;;;4193756;28;20057;-69
2023/03/16 07:23:57;;;;;;;8.82;4.30;;;5.80;99.90;;;;;;4193999;28;20040;-69
2023/03/16 07:25:57;;;;;;;9.50;4.40;;;5.80;99.90;;;;;;4193702;28;20502;-69
2023/03/16 07:27:58;;;;;;;10.55;4.30;;;5.80;99.90;;;;;;4194273;28;20051;-68
2023/03/16 07:29:59;;;;;;;10.15;5.18;;;5.90;99.90;;;;;;4197174;28;20032;-68
2023/03/16 07:31:59;;;;;;;9.05;4.35;;;5.90;99.90;;;;;;4196981;28;20491;-69
2023/03/16 07:34:01;;;;;;;7.97;4.40;;;5.90;99.90;;;;;;4197383;28;20214;-69
2023/03/16 07:36:05;;;;;;;8.50;4.65;;;5.90;99.90;;;;;;4197049;28;20444;-69
2023/03/16 07:38:05;;;;;;;9.32;5.03;;;5.90;99.90;;;;;;4197781;28;20032;-69
2023/03/16 07:40:08;;;;;;;11.50;5.05;;;5.90;99.90;;;;;;4197616;28;20115;-69
2023/03/16 07:42:08;;;;;;;10.20;4.85;;;5.90;99.90;;;;;;4187206;28;20056;-69
2023/03/16 07:44:10;;;;;;;7.68;5.15;;;5.90;99.90;;;;;;4194963;28;20051;-69
2023/03/16 07:46:13;;;;;;;10.23;5.15;;;6.00;99.90;;;;;;4196526;28;20111;-69
2023/03/16 07:48:14;;;;;;;11.98;5.32;;;6.00;99.90;;;;;;4196124;28;20025;-69
2023/03/16 07:50:15;;;;;;;11.43;4.65;;;6.00;99.90;;;;;;4199599;28;20024;-68
2023/03/16 07:52:16;;;;;;;11.15;5.03;;;6.00;99.90;;;;;;4195867;28;20454;-68
2023/03/16 07:54:16;;;;;;;8.05;4.97;;;6.00;99.90;;;;;;4195866;28;20079;-68
2023/03/16 07:56:17;;;;;;;9.13;5.05;;;6.00;99.90;;;;;;4188151;28;20032;-68
2023/03/16 07:58:18;;;;;;;9.13;4.70;;;6.00;99.90;;;;;;4196550;28;20032;-68
2023/03/16 08:00:22;;;;;;;9.07;5.15;;;6.10;99.90;;;;;;4196599;28;20040;-68
2023/03/16 08:02:23;;;;;;;10.55;4.82;;;6.00;99.90;;;;;;4196242;28;20028;-68
2023/03/16 08:04:24;;;;;;;8.15;4.72;;;6.10;99.90;;;;;;4186171;28;20473;-68
2023/03/16 08:06:24;;;;;;;10.55;4.95;;;6.10;99.90;;;;;;4195772;28;20053;-68
2023/03/16 08:08:25;;;;;;;8.60;4.88;;;6.10;99.90;;;;;;4196175;28;20052;-67
2023/03/16 08:10:27;;;;;;;7.18;4.45;;;6.10;99.90;;;;;;4196653;28;20048;-68
2023/03/16 08:12:27;;;;;;;7.93;4.57;;;6.10;99.90;;;;;;4197044;28;20036;-68
2023/03/16 08:14:28;;;;;;;7.15;4.40;;;6.20;99.90;;;;;;4196878;28;20082;-68
2023/03/16 08:16:29;;;;;;;8.15;5.05;;;6.20;99.90;;;;;;4196546;28;20087;-68
2023/03/16 08:18:30;;;;;;;11.40;4.72;;;6.30;99.90;;;;;;4196477;28;20052;-68
2023/03/16 08:20:30;;;;;;;8.10;4.43;;;6.30;99.90;;;;;;4195576;28;20507;-69
2023/03/16 08:22:31;;;;;;;7.95;4.72;;;6.30;99.90;;;;;;4196709;28;20025;-69
2023/03/16 08:24:32;;;;;;;9.57;4.72;;;6.30;99.90;;;;;;4195071;28;20086;-68
2023/03/16 08:26:33;;;;;;;7.85;4.57;;;6.30;99.90;;;;;;4194907;28;20041;-67
2023/03/16 08:28:35;;;;;;;7.97;4.50;;;6.40;99.90;;;;;;4186092;28;20125;-68
2023/03/16 08:30:36;;;;;;;7.80;4.35;;;6.40;99.90;;;;;;4194211;28;20028;-70
2023/03/16 08:32:41;;;;;;;9.18;4.43;;;6.40;99.90;;;;;;4195391;28;20078;-70
2023/03/16 08:34:41;;;;;;;6.22;4.57;;;6.40;99.90;;;;;;4195718;28;20115;-68
2023/03/16 08:36:42;;;;;;;6.43;3.97;;;6.50;99.90;;;;;;4195351;28;20395;-68
2023/03/16 08:38:45;;;;;;;11.10;4.88;;;6.50;99.90;;;;;;4195276;28;20383;-68
2023/03/16 08:40:47;;;;;;;8.07;4.68;;;6.60;99.90;;;;;;4194858;28;20383;-69
2023/03/16 08:42:51;;;;;;;7.47;4.10;;;6.60;99.90;;;;;;4196419;28;20037;-68
2023/03/16 08:44:53;;;;;;;5.78;3.90;;;6.60;99.90;;;;;;4196634;28;20056;-68
2023/03/16 08:46:54;;;;;;;;;;;6.60;99.90;;;;;;4195435;28;20028;-68
2023/03/16 08:48:55;;;;;;;5.47;3.65;;;6.70;99.90;;;;;;4195630;28;19912;-68
2023/03/16 08:50:55;;;;;;;6.90;3.67;;;6.70;99.90;;;;;;4193162;28;20082;-68
2023/03/16 08:52:56;;;;;;;7.43;3.65;;;6.70;99.90;;;;;;4188515;28;20040;-68
2023/03/16 08:54:56;;;;;;;7.72;3.78;;;6.70;99.90;;;;;;4188526;28;20032;-68
2023/03/16 08:56:57;;;;;;;9.13;4.25;;;6.80;99.90;;;;;;4193863;28;20028;-68
2023/03/16 08:58:58;;;;;;;8.65;4.93;;;6.80;99.90;;;;;;4194879;28;20479;-69
2023/03/16 09:01:00;;;;;;;7.43;4.38;;;6.80;99.90;;;;;;4192487;28;20075;-68
2023/03/16 09:03:01;;;;;;;7.25;4.10;;;6.70;99.90;;;;;;4191926;28;20490;-70
2023/03/16 09:05:02;;;;;;;7.78;4.03;;;6.80;99.90;;;;;;4195516;28;20045;-68
2023/03/16 09:07:02;;;;;;;11.13;4.65;;;6.80;99.90;;;;;;4171060;28;20546;-68
2023/03/16 09:09:03;;;;;;;8.63;4.57;;;6.80;99.90;;;;;;4193642;28;20165;-68
2023/03/16 09:11:07;;;;;;;7.05;4.28;;;6.90;99.90;;;;;;4195035;28;20063;-68
2023/03/16 09:13:07;;;;;;;7.57;3.95;;;6.90;99.90;;;;;;4191339;28;20032;-68
2023/03/16 09:15:10;;;;;;;9.10;3.95;;;6.90;99.90;;;;;;4195379;28;20029;-68
2023/03/16 09:17:11;;;;;;;8.02;4.40;;;6.90;99.90;;;;;;4185915;28;20033;-68
2023/03/16 09:19:12;;;;;;;5.72;3.53;;;6.90;99.90;;;;;;4193851;28;20028;-68
2023/03/16 09:21:13;;;;;;;13.85;4.45;;;7.00;99.90;;;;;;4192928;28;20353;-68
2023/03/16 09:23:13;;;;;;;7.18;4.28;;;7.00;99.90;;;;;;4192319;28;20032;-69
2023/03/16 09:25:14;;;;;;;6.70;3.80;;;7.00;99.90;;;;;;4189741;28;20025;-71
2023/03/16 09:27:15;;;;;;;7.32;3.80;;;7.00;99.90;;;;;;4194538;28;20475;-67
2023/03/16 09:29:17;;;;;;;7.70;4.40;;;7.10;99.90;;;;;;4195956;28;20051;-68
2023/03/16 09:31:18;;;;;;;9.27;4.57;;;7.10;99.90;;;;;;4193716;28;20061;-68
2023/03/16 09:33:24;;;;;;;6.88;4.03;;;7.20;99.90;;;;;;4193697;28;20055;-68
2023/03/16 09:35:25;;;;;;;9.32;4.38;;;7.20;99.90;;;;;;4193455;28;20037;-68
2023/03/16 09:37:26;;;;;;;8.18;4.30;;;7.30;99.90;;;;;;4186539;28;20511;-70
2023/03/16 09:39:26;;;;;;;7.63;4.47;;;7.30;99.90;;;;;;4191543;28;20037;-69
2023/03/16 09:41:49;;;;;;;6.70;4.57;;;7.30;99.90;;;;;;4195726;28;20051;-69
2023/03/16 09:44:04;;;;;;;8.45;4.85;;;7.40;99.90;;;;;;4194653;28;20484;-68
2023/03/16 09:46:27;;;;;;;10.07;4.75;;;7.40;99.90;;;;;;4193502;28;20032;-69
2023/03/16 09:48:31;;;;;;;7.28;4.43;;;7.40;99.90;;;;;;4194248;28;20124;-69
2023/03/16 09:50:36;;;;;;;10.75;4.93;;;7.40;99.90;;;;;;4194207;28;20032;-69
2023/03/16 09:53:12;;;;;;;10.52;4.50;;;7.30;99.90;;;;;;4192254;28;20102;-70
2023/03/16 09:55:26;;;;;;;8.82;4.80;;;7.40;99.90;;;;;;4150374;28;20368;-69
2023/03/16 09:57:31;;;;;;;6.57;3.70;;;7.40;99.90;;;;;;4203067;28;20080;-69
2023/03/16 09:59:31;;;;;;;6.32;3.85;;;7.50;99.90;;;;;;4194992;28;20032;-69
2023/03/16 10:01:51;;;;;;;7.85;3.97;;;7.50;99.90;;;;;;4193586;28;20084;-70
2023/03/16 10:04:03;;;;;;;6.25;4.25;;;7.50;99.90;;;;;;4184195;28;20044;-70
2023/03/16 10:06:11;;;;;;;6.95;4.05;;;7.50;99.90;;;;;;4175972;28;21037;-69
2023/03/16 10:08:30;;;;;;;5.03;3.90;;;7.60;99.90;;;;;;4193429;28;20032;-70
2023/03/16 10:10:59;;;;;;;6.57;4.28;;;7.70;99.90;;;;;;4194229;28;20040;-69
2023/03/16 10:13:01;;;;;;;6.38;4.05;;;7.70;99.90;;;;;;4191987;28;20033;-70
2023/03/16 10:15:06;;;;;;;8.90;4.72;;;7.70;99.90;;;;;;4194821;28;20040;-69
2023/03/16 10:17:16;;;;;;;8.07;4.40;;;7.70;99.90;;;;;;4194749;28;20021;-70
2023/03/16 10:19:29;;;;;;;8.50;4.32;;;7.80;99.90;;;;;;4190483;28;20031;-70
2023/03/16 10:21:32;;;;;;;;;;;7.80;99.90;;;;;;4185216;28;20025;-70
2023/03/16 10:23:34;;;;;;;11.13;5.15;;;7.80;99.90;;;;;;4191469;28;19908;-70
2023/03/16 10:25:41;;;;;;;;;;;7.80;99.90;;;;;;4195903;28;20479;-70
2023/03/16 10:27:44;;;;;;;6.15;4.50;;;7.90;99.90;;;;;;4195170;28;19988;-70
2023/03/16 10:29:45;;;;;;;8.10;4.40;;;7.90;99.90;;;;;;4183451;28;20402;-69
2023/03/16 10:31:47;;;;;;;8.25;4.60;;;8.00;99.90;;;;;;4193657;28;20386;-69
2023/03/16 10:33:54;;;;;;;8.80;4.63;;;8.00;99.90;;;;;;4194010;28;20383;-70
2023/03/16 10:36:02;;;;;;;8.15;3.90;;;8.10;99.90;;;;;;4192991;28;20036;-70
2023/03/16 10:38:03;;;;;;;6.88;4.03;;;8.20;99.90;;;;;;4192854;28;20028;-70
2023/03/16 10:40:11;;;;;;;6.82;4.00;;;8.30;99.90;;;;;;4192553;28;20044;-70
2023/03/16 10:42:15;;;;;;;7.20;4.15;;;8.40;99.90;;;;;;4192365;28;20479;-70
2023/03/16 10:44:23;;;;;;;6.55;4.20;;;8.40;99.90;;;;;;4193990;28;20052;-70
2023/03/16 10:46:26;;;;;;;7.15;4.15;;;8.50;99.90;;;;;;4193095;28;20044;-69